Main page
METAR-TAF:

METAR-TAF

Airports :

Keokuk Municipal Airport

Keokuk, Iowa, United States

latitude: 40-28N, longitude: 091-26W, elevation: 672 ft

Current weather observation

The report was made 32 minutes ago, at 17:15 UTC
Wind 7 mph from the South with gusts up to 13 mph
Temperature 84°F
Humidity 58%
Pressure 30.19 in. Hg
Visibility: 10 miles
Few clouds at a height of 3600 ft

METAR: KEOK 191715Z AUTO 17006G11KT 10SM FEW036 29/20 A3019 RMK A01

Time: 12:47 (17:47 UTC)


TAF: missing

Weather observations and forecasts of more than 4000 airports (METAR and TAF reports).

The available stations are represented by yellow and red dots on the map.

Hover mouse over dot to see the name of the station.

Then click to see weather observations and forecasts.

To change the map : click on the green buttons with a black cross to zoom in, on the green button with a dash to zoom out, or on the green arrows for adjacent maps.


METAR-TAF: